aviador You're here:

KAWM Decoded Metar

W MEMPHIS MUNI in AR, USA
Report Time2017-09-21 20:53:00
UTC Time2017-09-21 21:16:43
Flight Rules vfr VFR
Wind170° at 08 kt
W.Decomp.*RWY 17: 8.0 kt HW 0.1 kt LCW
W.Rank170° ranks 3
Current wind is above 170° avg. (7.7)
Visibility9999 m
Phenomena:N/A
Clouds:N/A
Expected CloudBase > 4,400 ft AGL from Temp-Dew spread
CeilingNone
Temp33°C (ISA +18)
Dew Point22°C (52% RH)
Heat Index36.9°C
QNH1015 hPa
Density Alt2,592 ft
Elevation213 ft
Report Wrong Elevation
Raw Report
KAWM 212053Z AUTO 17008KT 10SM CLR 33/22 A2997 RMK AO2 SLP144
T03280222 58022=

Extra information for KAWM:More info

Metar Taf Metar & Taf Last 4 Metars F.Rules Stats Wind Profile Meteogram Temp Stats Airport Information Weather charts Add Link Nearby VenuesMetar ALERT Operation Metar Decoded Social comments

AIRNAV info for KAWM